FranceFixed distance
Traversée Sud de France - 70km
5 Oct2024
Distance
70km
Finishers
180148 men32 women
Winning time
7:57:40h
Median pace
5.28km/h
Pace distribution
180 finishers · 3.22–8.79 km/h · mean 5.35
Every finisher ran the same 70 km course, so these paces are directly comparable.
Histogram of finisher pace. 180 finishers ranged from 3.22 to 8.79 kilometres per hour, with a mean of 5.35 and a median of 5.28. The busiest band is 5.0 to 5.5 kilometres per hour, with 41 finishers.
Results
Ranks 101–150 of 180
| Rank | Runner | Time | Pace | Cat. | Placing |
|---|---|---|---|---|---|
| 101 | 13:32:18h | 5.17 | M35 | 86th M · 18th M35 | |
| 102 | 13:33:19h | 5.16 | M50 | 87th M · 6th M50 | |
| 103 | Athle 632 - S/L Athle ... | 13:36:48h | 5.14 | W40 | 16th F · 8th W40 |
| 104 | Athle 66 - S/L Itsweir... | 13:41:22h | 5.11 | M23 | 88th M · 27th M23 |
| 105 | 13:42:13h | 5.11 | M23 | 89th M · 28th M23 | |
| 106 | 13:43:52h | 5.10 | M50 | 90th M · 7th M50 | |
| 107 | 13:44:31h | 5.09 | W23 | 17th F · 5th W23 | |
| 108 | 13:47:51h | 5.07 | M40 | 91st M · 16th M40 | |
| 109 | 13:47:54h | 5.07 | M35 | 92nd M · 19th M35 | |
| 110 | 13:51:43h | 5.05 | M45 | 93rd M · 13th M45 | |
| 111 | 13:54:20h | 5.03 | M35 | 94th M · 20th M35 | |
| 112 | 13:54:50h | 5.03 | M60 | 95th M · 4th M60 | |
| 113 | 13:55:28h | 5.03 | M50 | 96th M · 8th M50 | |
| 114 | 13:57:19h | 5.02 | W35 | 18th F · 1st W35 | |
| 115 | 14:00:49h | 5.00 | M55 | 97th M · 7th M55 | |
| 116 | 14:00:52h | 5.00 | W35 | 19th F · 2nd W35 | |
| 117 | Clermont Sport Endurance | 14:16:34h | 4.90 | W35 | 20th F · 3rd W35 |
| 118 | Clermont Sport Endurance | 14:16:36h | 4.90 | M45 | 98th M · 14th M45 |
| 119 | 14:17:08h | 4.90 | M40 | 99th M · 17th M40 | |
| 120 | 14:25:48h | 4.85 | M35 | 100th M · 21st M35 | |
| 121 | 14:25:51h | 4.85 | M23 | 101st M · 29th M23 | |
| 122 | 14:28:05h | 4.84 | M55 | 102nd M · 8th M55 | |
| 123 | 14:28:50h | 4.83 | M45 | 103rd M · 15th M45 | |
| 124 | 14:32:47h | 4.81 | M45 | 104th M · 16th M45 | |
| 125 | 14:33:25h | 4.81 | M55 | 105th M · 9th M55 | |
| 126 | 14:33:44h | 4.81 | W45 | 21st F · 1st W45 | |
| 127 | 14:34:42h | 4.80 | M50 | 106th M · 9th M50 | |
| 128 | 14:35:59h | 4.79 | M23 | 107th M · 30th M23 | |
| 129 | Athle 11 - S/L Ginesta... | 14:45:25h | 4.74 | M40 | 108th M · 18th M40 |
| 130 | Athle 11 - S/L AC Narb... | 14:45:31h | 4.74 | M50 | 109th M · 10th M50 |
| 131 | 14:46:43h | 4.74 | M55 | 110th M · 10th M55 | |
| 132 | 14:46:46h | 4.74 | M60 | 111th M · 5th M60 | |
| 133 | 14:47:51h | 4.73 | M23 | 112th M · 31st M23 | |
| 134 | 14:50:48h | 4.71 | W35 | 22nd F · 4th W35 | |
| 135 | 14:51:33h | 4.71 | W45 | 23rd F · 2nd W45 | |
| 136 | 14:57:47h | 4.68 | M60 | 113th M · 6th M60 | |
| 137 | 15:09:53h | 4.62 | M50 | 114th M · 11th M50 | |
| 138 | 15:20:43h | 4.56 | M55 | 115th M · 11th M55 | |
| 139 | 15:28:30h | 4.52 | M23 | 116th M · 32nd M23 | |
| 140 | Athletic Club Latitude 30 | 15:28:36h | 4.52 | M35 | 117th M · 22nd M35 |
| 141 | 15:28:43h | 4.52 | M23 | 118th M · 33rd M23 | |
| 142 | 15:30:03h | 4.52 | M55 | 119th M · 12th M55 | |
| 143 | 15:45:53h | 4.44 | M65 | 120th M · 1st M65 | |
| 144 | ATN - S/L US Carmaux | 15:51:18h | 4.42 | W45 | 24th F · 3rd W45 |
| 145 | ATN - S/L US Carmaux | 15:51:18h | 4.42 | M50 | 121st M · 12th M50 |
| 146 | 15:52:27h | 4.41 | M45 | 122nd M · 17th M45 | |
| 147 | 15:55:26h | 4.40 | W35 | 25th F · 5th W35 | |
| 148 | 15:55:28h | 4.40 | M40 | 123rd M · 19th M40 | |
| 149 | 15:55:28h | 4.40 | M40 | 123rd M · 19th M40 | |
| 150 | 16:00:22h | 4.37 | M35 | 125th M · 23rd M35 |
- 10186th M · 18th M35Time13:32:18hPace5.17Cat.M35
- 10287th M · 6th M50Time13:33:19hPace5.16Cat.M50
- 103Athle 632 - S/L Athle ...16th F · 8th W40Time13:36:48hPace5.14Cat.W40
- 104Athle 66 - S/L Itsweir...88th M · 27th M23Time13:41:22hPace5.11Cat.M23
- 10589th M · 28th M23Time13:42:13hPace5.11Cat.M23
- 10690th M · 7th M50Time13:43:52hPace5.10Cat.M50
- 10717th F · 5th W23Time13:44:31hPace5.09Cat.W23
- 10891st M · 16th M40Time13:47:51hPace5.07Cat.M40
- 10992nd M · 19th M35Time13:47:54hPace5.07Cat.M35
- 11093rd M · 13th M45Time13:51:43hPace5.05Cat.M45
- 11194th M · 20th M35Time13:54:20hPace5.03Cat.M35
- 11295th M · 4th M60Time13:54:50hPace5.03Cat.M60
- 11396th M · 8th M50Time13:55:28hPace5.03Cat.M50
- 11418th F · 1st W35Time13:57:19hPace5.02Cat.W35
- 11597th M · 7th M55Time14:00:49hPace5.00Cat.M55
- 11619th F · 2nd W35Time14:00:52hPace5.00Cat.W35
- 117Clermont Sport Endurance20th F · 3rd W35Time14:16:34hPace4.90Cat.W35
- 118Clermont Sport Endurance98th M · 14th M45Time14:16:36hPace4.90Cat.M45
- 11999th M · 17th M40Time14:17:08hPace4.90Cat.M40
- 120100th M · 21st M35Time14:25:48hPace4.85Cat.M35
- 121101st M · 29th M23Time14:25:51hPace4.85Cat.M23
- 122102nd M · 8th M55Time14:28:05hPace4.84Cat.M55
- 123103rd M · 15th M45Time14:28:50hPace4.83Cat.M45
- 124104th M · 16th M45Time14:32:47hPace4.81Cat.M45
- 125105th M · 9th M55Time14:33:25hPace4.81Cat.M55
- 12621st F · 1st W45Time14:33:44hPace4.81Cat.W45
- 127106th M · 9th M50Time14:34:42hPace4.80Cat.M50
- 128107th M · 30th M23Time14:35:59hPace4.79Cat.M23
- 129Athle 11 - S/L Ginesta...108th M · 18th M40Time14:45:25hPace4.74Cat.M40
- 130Athle 11 - S/L AC Narb...109th M · 10th M50Time14:45:31hPace4.74Cat.M50
- 131110th M · 10th M55Time14:46:43hPace4.74Cat.M55
- 132111th M · 5th M60Time14:46:46hPace4.74Cat.M60
- 133112th M · 31st M23Time14:47:51hPace4.73Cat.M23
- 13422nd F · 4th W35Time14:50:48hPace4.71Cat.W35
- 13523rd F · 2nd W45Time14:51:33hPace4.71Cat.W45
- 136113th M · 6th M60Time14:57:47hPace4.68Cat.M60
- 137114th M · 11th M50Time15:09:53hPace4.62Cat.M50
- 138115th M · 11th M55Time15:20:43hPace4.56Cat.M55
- 139116th M · 32nd M23Time15:28:30hPace4.52Cat.M23
- 140Athletic Club Latitude 30117th M · 22nd M35Time15:28:36hPace4.52Cat.M35
- 141118th M · 33rd M23Time15:28:43hPace4.52Cat.M23
- 142119th M · 12th M55Time15:30:03hPace4.52Cat.M55
- 143120th M · 1st M65Time15:45:53hPace4.44Cat.M65
- 144ATN - S/L US Carmaux24th F · 3rd W45Time15:51:18hPace4.42Cat.W45
- 145ATN - S/L US Carmaux121st M · 12th M50Time15:51:18hPace4.42Cat.M50
- 146122nd M · 17th M45Time15:52:27hPace4.41Cat.M45
- 14725th F · 5th W35Time15:55:26hPace4.40Cat.W35
- 148123rd M · 19th M40Time15:55:28hPace4.40Cat.M40
- 149123rd M · 19th M40Time15:55:28hPace4.40Cat.M40
- 150125th M · 23rd M35Time16:00:22hPace4.37Cat.M35
Showing ranks 101–150 of 180